Time;durP1;ratioP1;P1;durP2;ratioP2;P2;SDS_P1;SDS_P2;PMS_P1;PMS_P2;Temp;Humidity;BMP_temperature;BMP_pressure;BME280_temperature;BME280_humidity;BME280_pressure;Samples;Min_cycle;Max_cycle;Signal;HPM_P1;HPM_P2
2020/12/17 00:00:32;;;;;;;4.77;2.80;;;9.50;95.10;;;;;;4834343;29;20042;-78
2020/12/17 00:02:59;;;;;;;4.67;2.47;;;9.50;95.10;;;;;;4844976;29;20042;-79
2020/12/17 00:05:26;;;;;;;4.43;2.60;;;9.50;95.10;;;;;;4829641;29;20042;-81
2020/12/17 00:07:52;;;;;;;4.07;2.17;;;9.50;95.10;;;;;;4844592;29;20103;-82
2020/12/17 00:10:19;;;;;;;4.90;2.67;;;9.50;95.10;;;;;;4836690;29;20042;-81
2020/12/17 00:12:47;;;;;;;4.77;2.60;;;9.50;95.10;;;;;;4817621;29;20087;-77
2020/12/17 00:15:16;;;;;;;4.13;2.10;;;9.50;95.10;;;;;;4838635;29;20103;-78
2020/12/17 00:17:48;;;;;;;4.13;2.53;;;9.50;95.40;;;;;;4837672;29;20106;-81
2020/12/17 00:20:18;;;;;;;4.78;2.50;;;9.50;95.10;;;;;;4843193;29;20077;-80
2020/12/17 00:22:44;;;;;;;4.73;2.90;;;9.50;95.10;;;;;;4838828;29;20144;-79
2020/12/17 00:25:13;;;;;;;4.97;2.77;;;9.50;95.10;;;;;;4846613;29;20452;-79
2020/12/17 00:27:40;;;;;;;4.93;2.77;;;9.50;95.10;;;;;;4841350;29;20042;-77
2020/12/17 00:30:11;;;;;;;5.20;2.80;;;9.50;95.10;;;;;;4837548;29;20037;-76
2020/12/17 00:32:38;;;;;;;4.63;2.63;;;9.50;95.10;;;;;;4835910;29;20062;-78
2020/12/17 00:35:05;;;;;;;4.80;2.90;;;9.50;95.10;;;;;;4837395;29;20050;-77
2020/12/17 00:37:35;;;;;;;4.47;2.47;;;9.50;95.10;;;;;;4831929;29;20049;-80
2020/12/17 00:40:05;;;;;;;5.30;2.80;;;9.50;95.10;;;;;;4843023;29;20102;-80
2020/12/17 00:42:31;;;;;;;5.00;3.30;;;9.50;95.20;;;;;;4825099;29;20050;-78
2020/12/17 00:44:58;;;;;;;4.80;3.00;;;9.50;95.20;;;;;;4844034;29;20098;-79
2020/12/17 00:47:28;;;;;;;6.47;3.43;;;9.50;95.10;;;;;;4855219;29;20046;-79
2020/12/17 00:49:56;;;;;;;5.20;2.90;;;9.50;95.10;;;;;;4843027;29;20075;-79
2020/12/17 00:52:23;;;;;;;5.30;2.83;;;9.50;95.10;;;;;;4830927;29;20042;-82
2020/12/17 00:54:50;;;;;;;5.13;2.43;;;9.50;95.10;;;;;;4823271;29;20490;-80
2020/12/17 00:57:18;;;;;;;5.07;2.77;;;9.50;95.10;;;;;;4823978;29;20053;-79
2020/12/17 00:59:45;;;;;;;7.03;4.17;;;9.60;95.10;;;;;;4845216;29;20046;-79
2020/12/17 01:02:11;;;;;;;5.80;3.13;;;9.50;95.10;;;;;;4834401;29;20053;-79
2020/12/17 01:04:38;;;;;;;7.67;3.43;;;9.60;95.10;;;;;;4823838;29;20608;-79
2020/12/17 01:07:04;;;;;;;7.00;4.17;;;9.60;95.00;;;;;;4835555;29;20041;-79
2020/12/17 01:09:32;;;;;;;7.00;4.00;;;9.50;95.00;;;;;;4812514;29;20046;-79
2020/12/17 01:11:58;;;;;;;7.50;3.63;;;9.50;95.00;;;;;;4845110;29;20042;-79
2020/12/17 01:14:25;;;;;;;6.93;4.13;;;9.50;95.00;;;;;;4827550;29;20045;-79
2020/12/17 01:16:51;;;;;;;6.03;3.80;;;9.50;95.00;;;;;;4842856;29;20102;-79
2020/12/17 01:19:18;;;;;;;6.57;4.20;;;9.50;95.00;;;;;;4842851;29;20069;-78
2020/12/17 01:21:44;;;;;;;7.70;4.57;;;9.50;95.00;;;;;;4842423;29;20073;-79
2020/12/17 01:24:11;;;;;;;6.73;3.97;;;9.50;95.00;;;;;;4843262;29;20058;-79
2020/12/17 01:26:37;;;;;;;6.40;3.80;;;9.50;95.00;;;;;;4846238;29;20069;-79
2020/12/17 01:29:04;;;;;;;6.23;3.43;;;9.50;95.00;;;;;;4835192;29;20052;-79
2020/12/17 01:31:30;;;;;;;6.50;3.87;;;9.50;95.00;;;;;;4842596;29;20091;-79
2020/12/17 01:33:57;;;;;;;5.97;3.47;;;9.50;95.10;;;;;;4824984;29;20472;-79
2020/12/17 01:36:23;;;;;;;6.97;4.27;;;9.50;95.10;;;;;;4835288;29;20050;-79
2020/12/17 01:38:50;;;;;;;6.83;4.17;;;9.50;95.00;;;;;;4815670;29;20050;-79
2020/12/17 01:41:17;;;;;;;6.17;3.73;;;9.50;95.10;;;;;;4829653;29;20053;-79
2020/12/17 01:43:45;;;;;;;7.10;3.83;;;9.50;95.00;;;;;;4844322;29;20050;-78
2020/12/17 01:46:15;;;;;;;6.43;3.43;;;9.50;95.00;;;;;;4837369;29;20049;-79
2020/12/17 01:48:42;;;;;;;5.37;3.23;;;9.60;95.10;;;;;;4843184;29;20041;-79
2020/12/17 01:51:10;;;;;;;5.67;3.13;;;9.60;95.10;;;;;;4842540;29;20034;-79
2020/12/17 01:53:41;;;;;;;5.43;3.10;;;9.60;95.00;;;;;;4825385;29;20049;-79
2020/12/17 01:56:21;;;;;;;5.27;2.77;;;9.60;95.00;;;;;;4837977;29;20106;-79
2020/12/17 01:59:00;;;;;;;3.80;2.00;;;9.60;95.00;;;;;;4847436;29;20072;-79
2020/12/17 02:01:30;;;;;;;5.50;3.20;;;9.60;95.00;;;;;;4843486;29;20046;-79
2020/12/17 02:04:01;;;;;;;5.30;2.50;;;9.60;95.10;;;;;;4842762;29;20464;-78
2020/12/17 02:06:28;;;;;;;4.90;2.87;;;9.60;95.00;;;;;;4844744;29;20033;-78
2020/12/17 02:08:55;;;;;;;4.20;2.40;;;9.60;95.00;;;;;;4836563;29;20074;-78
2020/12/17 02:11:22;;;;;;;5.23;2.80;;;9.60;95.00;;;;;;4841887;29;20115;-78
2020/12/17 02:13:48;;;;;;;6.90;4.00;;;9.60;95.00;;;;;;4823672;29;20076;-78
2020/12/17 02:16:16;;;;;;;6.03;3.50;;;9.60;95.00;;;;;;4821643;29;20566;-78
2020/12/17 02:18:44;;;;;;;6.07;3.93;;;9.60;95.00;;;;;;4860363;29;20136;-78
2020/12/17 02:21:12;;;;;;;7.17;4.50;;;9.60;95.00;;;;;;4860359;29;20045;-78
2020/12/17 02:23:39;;;;;;;9.07;5.07;;;9.60;95.00;;;;;;4855128;29;20053;-78
2020/12/17 02:26:06;;;;;;;7.67;4.83;;;9.60;94.90;;;;;;4822201;29;20065;-78
2020/12/17 02:28:33;;;;;;;5.90;3.80;;;9.50;94.90;;;;;;4842102;29;20106;-78
2020/12/17 02:31:00;;;;;;;7.20;4.17;;;9.50;95.00;;;;;;4837553;29;20506;-77
2020/12/17 02:33:27;;;;;;;6.23;3.30;;;9.50;95.00;;;;;;4842839;29;20050;-78
2020/12/17 02:35:54;;;;;;;5.80;3.87;;;9.50;95.30;;;;;;4829556;29;20440;-78
2020/12/17 02:38:21;;;;;;;5.97;3.57;;;9.50;95.00;;;;;;4826610;29;20077;-78
2020/12/17 02:40:50;;;;;;;5.07;3.23;;;9.50;95.00;;;;;;4826029;29;20091;-78
2020/12/17 02:43:17;;;;;;;4.90;3.10;;;9.50;95.00;;;;;;4838715;29;20452;-79
2020/12/17 02:45:48;;;;;;;5.37;2.80;;;9.50;95.10;;;;;;4826278;29;20038;-79
2020/12/17 02:48:19;;;;;;;4.65;2.60;;;9.50;95.10;;;;;;4842136;29;20050;-79
2020/12/17 02:50:45;;;;;;;4.57;2.40;;;9.50;95.10;;;;;;4829292;29;20045;-78
2020/12/17 02:53:12;;;;;;;3.90;2.30;;;9.50;95.10;;;;;;4822448;29;20126;-78
2020/12/17 02:55:39;;;;;;;4.77;2.87;;;9.50;95.10;;;;;;4811001;29;20520;-78
2020/12/17 02:58:06;;;;;;;3.83;2.40;;;9.50;95.10;;;;;;4842371;29;20054;-78
2020/12/17 03:00:33;;;;;;;3.90;2.27;;;9.50;95.10;;;;;;4828159;29;20498;-79
2020/12/17 03:02:59;;;;;;;4.10;2.20;;;9.50;95.10;;;;;;4826172;29;20500;-79
2020/12/17 03:05:26;;;;;;;4.77;2.53;;;9.60;95.20;;;;;;4841857;29;20041;-79
2020/12/17 03:07:55;;;;;;;4.30;2.67;;;9.50;95.10;;;;;;4842277;29;20050;-79
2020/12/17 03:10:22;;;;;;;4.43;2.17;;;9.60;95.40;;;;;;4825885;29;20145;-79
2020/12/17 03:12:48;;;;;;;3.97;2.30;;;9.60;95.20;;;;;;4842172;29;20034;-79
2020/12/17 03:15:16;;;;;;;3.97;2.43;;;9.60;95.20;;;;;;4841937;29;20510;-79
2020/12/17 03:17:43;;;;;;;5.57;2.60;;;9.60;95.20;;;;;;4822256;29;20070;-79
2020/12/17 03:20:11;;;;;;;5.00;2.43;;;9.60;95.10;;;;;;4840813;29;20049;-79
2020/12/17 03:22:38;;;;;;;4.13;2.90;;;9.60;95.10;;;;;;4825666;29;20062;-78
2020/12/17 03:25:08;;;;;;;4.23;2.37;;;9.60;95.10;;;;;;4840845;29;20110;-79
2020/12/17 03:27:34;;;;;;;4.93;2.40;;;9.60;95.10;;;;;;4836566;29;20117;-79
2020/12/17 03:30:04;;;;;;;5.53;3.00;;;9.70;95.20;;;;;;4835101;29;20487;-78
2020/12/17 03:32:30;;;;;;;4.13;2.40;;;9.70;95.10;;;;;;4830029;29;20046;-79
2020/12/17 03:34:58;;;;;;;5.20;3.17;;;9.70;95.10;;;;;;4827809;29;20499;-79
2020/12/17 03:37:24;;;;;;;4.70;2.57;;;9.70;95.10;;;;;;4832750;29;20555;-78
2020/12/17 03:39:51;;;;;;;4.97;2.60;;;9.70;95.10;;;;;;4822798;29;20049;-78
2020/12/17 03:42:18;;;;;;;3.97;2.17;;;9.70;95.10;;;;;;4832490;29;20046;-79
2020/12/17 03:44:44;;;;;;;3.60;2.00;;;9.70;95.10;;;;;;4841518;29;20126;-79
2020/12/17 03:47:11;;;;;;;5.40;2.97;;;9.70;95.10;;;;;;4841966;29;20103;-79
2020/12/17 03:49:38;;;;;;;4.37;2.50;;;9.70;95.10;;;;;;4835778;29;20046;-79
2020/12/17 03:52:04;;;;;;;4.77;2.53;;;9.70;95.10;;;;;;4812883;29;20098;-78
2020/12/17 03:54:31;;;;;;;5.00;2.93;;;9.70;95.10;;;;;;4820184;29;20038;-78
2020/12/17 03:56:57;;;;;;;5.77;3.13;;;9.70;95.10;;;;;;4834630;29;20042;-78
2020/12/17 03:59:23;;;;;;;4.27;2.83;;;9.70;95.10;;;;;;4816610;29;20440;-78
2020/12/17 04:01:50;;;;;;;4.53;2.73;;;9.70;95.10;;;;;;4825048;29;20507;-78
2020/12/17 04:04:17;;;;;;;3.40;2.40;;;9.70;95.10;;;;;;4825106;29;20395;-78
2020/12/17 04:06:44;;;;;;;5.37;3.00;;;9.70;95.10;;;;;;4809875;29;20060;-77
2020/12/17 04:09:11;;;;;;;4.77;2.40;;;9.80;95.10;;;;;;4828789;29;20034;-78
2020/12/17 04:11:37;;;;;;;4.17;2.50;;;9.70;95.10;;;;;;4841727;29;20049;-78
2020/12/17 04:14:04;;;;;;;5.10;2.77;;;9.70;95.10;;;;;;4841445;29;20041;-78
2020/12/17 04:16:31;;;;;;;4.30;2.40;;;9.70;95.10;;;;;;4841548;29;20098;-78
2020/12/17 04:18:57;;;;;;;4.70;2.70;;;9.70;95.10;;;;;;4803634;29;20559;-78
2020/12/17 04:21:24;;;;;;;5.73;3.50;;;9.70;95.10;;;;;;4824609;29;20050;-78
2020/12/17 04:23:50;;;;;;;5.97;3.20;;;9.70;95.10;;;;;;4822726;29;20454;-78
2020/12/17 04:26:17;;;;;;;5.63;3.63;;;9.70;95.10;;;;;;4859253;29;20034;-78
2020/12/17 04:28:44;;;;;;;7.63;4.67;;;9.70;95.10;;;;;;4845361;29;20105;-79
2020/12/17 04:31:10;;;;;;;8.60;5.43;;;9.80;95.10;;;;;;4841618;29;20045;-78
2020/12/17 04:33:37;;;;;;;6.30;4.20;;;9.80;95.00;;;;;;4809270;29;20049;-78
2020/12/17 04:36:04;;;;;;;7.77;4.80;;;9.80;95.00;;;;;;4846500;29;20795;-79
2020/12/17 04:38:30;;;;;;;7.57;5.33;;;9.80;95.00;;;;;;4831633;29;20054;-79
2020/12/17 04:41:02;;;;;;;9.10;5.60;;;9.80;95.00;;;;;;4846639;29;20049;-80
2020/12/17 04:43:29;;;;;;;8.40;5.90;;;9.80;95.00;;;;;;4854575;29;20050;-80
2020/12/17 04:45:58;;;;;;;7.83;4.90;;;9.80;95.10;;;;;;4857396;29;20048;-82
2020/12/17 04:48:26;;;;;;;6.80;5.00;;;9.80;95.10;;;;;;4845616;29;20054;-82
2020/12/17 04:50:54;;;;;;;8.63;6.13;;;9.80;95.10;;;;;;4862830;29;20078;-82
2020/12/17 04:53:22;;;;;;;8.20;5.07;;;9.80;95.20;;;;;;4860637;29;20052;-82
2020/12/17 04:55:51;;;;;;;9.40;5.67;;;9.80;95.20;;;;;;4846873;29;20050;-81
2020/12/17 04:58:20;;;;;;;9.00;6.43;;;9.80;95.20;;;;;;4846047;29;20053;-82
2020/12/17 05:00:53;;;;;;;8.87;5.87;;;9.80;95.20;;;;;;4862507;29;20494;-82
2020/12/17 05:03:20;;;;;;;;;;;9.70;95.20;;;;;;4862731;29;20490;-82
2020/12/17 05:05:51;;;;;;;7.63;4.57;;;9.70;95.30;;;;;;4849195;29;19924;-82
2020/12/17 05:08:21;;;;;;;8.07;4.90;;;9.70;95.30;;;;;;4838305;29;20086;-83
2020/12/17 05:10:49;;;;;;;7.83;5.20;;;9.80;95.30;;;;;;4856567;29;20066;-81
2020/12/17 05:13:17;;;;;;;6.23;4.47;;;9.70;95.30;;;;;;4861571;29;20125;-81
2020/12/17 05:15:44;;;;;;;6.90;4.30;;;9.80;95.40;;;;;;4861375;29;20102;-80
2020/12/17 05:18:11;;;;;;;7.13;4.67;;;9.80;95.40;;;;;;4850155;29;20097;-80
2020/12/17 05:20:43;;;;;;;5.90;3.93;;;9.80;95.40;;;;;;4858418;29;20490;-81
2020/12/17 05:23:10;;;;;;;7.13;4.32;;;9.80;95.40;;;;;;4852893;29;20061;-80
2020/12/17 05:25:38;;;;;;;7.00;3.80;;;9.80;95.40;;;;;;4827395;29;20474;-79
2020/12/17 05:28:05;;;;;;;5.93;4.40;;;9.80;95.40;;;;;;4823732;29;20125;-82
2020/12/17 05:30:34;;;;;;;7.43;4.50;;;9.80;95.50;;;;;;4827530;29;20046;-79
2020/12/17 05:33:02;;;;;;;8.77;5.53;;;9.80;95.50;;;;;;4827549;29;20042;-78
2020/12/17 05:35:36;;;;;;;9.03;5.93;;;9.80;95.50;;;;;;4836514;29;20054;-80
2020/12/17 05:38:08;;;;;;;9.67;5.43;;;9.80;95.50;;;;;;4843563;29;20448;-79
2020/12/17 05:40:39;;;;;;;8.00;5.23;;;9.80;95.50;;;;;;4843772;29;20052;-78
2020/12/17 05:43:06;;;;;;;9.70;6.40;;;9.90;95.50;;;;;;4827606;29;20113;-78
2020/12/17 05:45:34;;;;;;;10.00;6.40;;;9.80;95.50;;;;;;4827446;29;20094;-77
2020/12/17 05:48:11;;;;;;;10.53;6.43;;;9.80;95.50;;;;;;4827119;29;20046;-77
2020/12/17 05:50:58;;;;;;;10.03;6.83;;;9.90;95.60;;;;;;4827282;29;20456;-76
2020/12/17 05:53:29;;;;;;;8.27;5.73;;;9.90;95.60;;;;;;4843445;29;20445;-76
2020/12/17 05:56:02;;;;;;;8.65;5.70;;;9.80;95.60;;;;;;4827347;29;20050;-76
2020/12/17 05:58:42;;;;;;;10.80;5.70;;;9.90;95.60;;;;;;4799378;29;20119;-76
2020/12/17 06:01:19;;;;;;;9.33;5.77;;;9.90;95.60;;;;;;4827409;29;20476;-76
2020/12/17 06:03:45;;;;;;;7.87;5.10;;;9.90;95.70;;;;;;4839365;29;20803;-76
2020/12/17 06:06:12;;;;;;;7.30;5.27;;;9.80;95.70;;;;;;4834238;29;20125;-76
2020/12/17 06:08:40;;;;;;;7.53;4.93;;;9.80;95.70;;;;;;4823877;29;20069;-76
2020/12/17 06:11:13;;;;;;;9.57;5.07;;;9.80;95.70;;;;;;4827009;29;20042;-76
2020/12/17 06:13:41;;;;;;;8.98;5.95;;;9.90;95.70;;;;;;4837935;29;20074;-76
2020/12/17 06:16:10;;;;;;;9.53;6.20;;;9.90;95.70;;;;;;4843070;29;20102;-76
2020/12/17 06:18:38;;;;;;;9.10;5.60;;;9.90;95.70;;;;;;4826682;29;20081;-76
2020/12/17 06:21:09;;;;;;;9.57;6.50;;;9.90;96.00;;;;;;4843086;29;20046;-76
2020/12/17 06:23:37;;;;;;;9.97;6.60;;;9.90;95.70;;;;;;4836946;29;20058;-76
2020/12/17 06:26:09;;;;;;;9.83;7.00;;;9.90;95.70;;;;;;4837526;29;20077;-76
2020/12/17 06:28:47;;;;;;;10.93;7.53;;;9.90;95.70;;;;;;4836187;29;20073;-76
2020/12/17 06:31:28;;;;;;;11.30;8.37;;;9.90;95.80;;;;;;4830635;29;20034;-76
2020/12/17 06:34:03;;;;;;;12.67;7.77;;;9.90;95.80;;;;;;4842631;29;20094;-76
2020/12/17 06:36:57;;;;;;;13.63;9.50;;;9.90;95.80;;;;;;4829928;29;20406;-76
2020/12/17 06:39:24;;;;;;;12.20;8.73;;;9.90;95.70;;;;;;4826884;29;20123;-76
2020/12/17 06:41:51;;;;;;;11.60;7.80;;;9.80;95.80;;;;;;4828633;29;20094;-76
2020/12/17 06:44:25;;;;;;;11.40;8.37;;;9.80;95.80;;;;;;4826066;29;20081;-76
2020/12/17 06:46:59;;;;;;;10.87;8.17;;;9.80;95.80;;;;;;4811133;29;20440;-76
2020/12/17 06:49:30;;;;;;;12.87;8.87;;;9.80;95.80;;;;;;4826217;29;20038;-76
2020/12/17 06:52:08;;;;;;;13.63;9.43;;;9.80;95.80;;;;;;4840761;29;20050;-76
2020/12/17 06:54:42;;;;;;;12.87;8.60;;;9.80;95.80;;;;;;4842739;29;20054;-77
2020/12/17 06:57:16;;;;;;;13.07;8.90;;;9.80;95.80;;;;;;4842136;29;20061;-76
2020/12/17 06:59:45;;;;;;;13.43;9.50;;;9.80;95.80;;;;;;4796310;29;20499;-76
2020/12/17 07:02:17;;;;;;;16.33;10.27;;;9.80;95.80;;;;;;4842331;29;20506;-76
2020/12/17 07:04:48;;;;;;;15.25;9.95;;;9.70;95.80;;;;;;4826160;29;20126;-76
2020/12/17 07:07:24;;;;;;;14.27;9.13;;;9.70;95.80;;;;;;4821728;29;20038;-76
2020/12/17 07:09:53;;;;;;;13.73;9.70;;;9.70;95.80;;;;;;4835248;29;20074;-76
2020/12/17 07:12:35;;;;;;;15.67;10.73;;;9.70;95.80;;;;;;4826095;29;20034;-76
2020/12/17 07:15:04;;;;;;;15.90;11.87;;;9.70;95.80;;;;;;4826367;29;20045;-75
2020/12/17 07:17:31;;;;;;;16.40;11.03;;;9.70;95.80;;;;;;4842453;29;20061;-76
2020/12/17 07:19:57;;;;;;;16.63;11.47;;;9.60;96.10;;;;;;4826078;29;20046;-76
2020/12/17 07:22:24;;;;;;;15.60;10.77;;;9.60;95.80;;;;;;4842505;29;20165;-76
2020/12/17 07:24:54;;;;;;;15.10;10.03;;;9.60;95.80;;;;;;4836510;29;20049;-76
2020/12/17 07:27:27;;;;;;;14.10;9.00;;;9.70;95.90;;;;;;4828800;29;20041;-76
2020/12/17 07:30:11;;;;;;;17.70;11.17;;;9.70;95.90;;;;;;4858468;29;20046;-76
2020/12/17 07:32:46;;;;;;;16.47;10.43;;;9.60;95.80;;;;;;4843367;29;20076;-76
2020/12/17 07:35:15;;;;;;;17.00;12.17;;;9.60;95.80;;;;;;4828809;29;20081;-76
2020/12/17 07:37:56;;;;;;;20.17;13.73;;;9.60;95.80;;;;;;4859962;29;20041;-76
2020/12/17 07:40:25;;;;;;;18.63;12.67;;;9.60;95.80;;;;;;4848773;29;20073;-76
2020/12/17 07:42:59;;;;;;;17.73;12.10;;;9.70;95.80;;;;;;4842517;29;20072;-77
2020/12/17 07:45:49;;;;;;;16.17;10.37;;;9.70;95.90;;;;;;4860035;29;20037;-76
2020/12/17 07:48:51;;;;;;;15.43;9.97;;;9.70;95.90;;;;;;4843471;29;20050;-76
2020/12/17 07:51:18;;;;;;;17.27;11.10;;;9.70;95.90;;;;;;4829940;29;20388;-77
2020/12/17 07:53:46;;;;;;;16.43;10.33;;;9.70;95.90;;;;;;4854853;29;20046;-77
2020/12/17 07:56:13;;;;;;;14.87;9.43;;;9.70;95.90;;;;;;4851980;29;20470;-76
2020/12/17 07:58:41;;;;;;;16.83;11.60;;;9.70;95.90;;;;;;4832017;29;20073;-76
2020/12/17 08:01:10;;;;;;;17.03;10.90;;;9.70;95.90;;;;;;4853170;29;20061;-75
2020/12/17 08:03:51;;;;;;;16.73;11.00;;;9.70;95.90;;;;;;4829917;29;20141;-76
2020/12/17 08:06:25;;;;;;;17.27;10.37;;;9.70;95.80;;;;;;4828655;29;20098;-77
2020/12/17 08:08:59;;;;;;;15.20;10.07;;;9.70;95.90;;;;;;4860534;29;20224;-76
2020/12/17 08:11:34;;;;;;;14.13;8.27;;;9.70;95.90;;;;;;4863138;29;20050;-75
2020/12/17 08:14:06;;;;;;;17.87;10.53;;;9.70;95.90;;;;;;4862161;29;20034;-75
2020/12/17 08:16:33;;;;;;;15.45;9.70;;;9.80;95.90;;;;;;4862976;29;20072;-75
2020/12/17 08:19:01;;;;;;;14.10;9.20;;;9.70;95.90;;;;;;4861375;29;20069;-77
2020/12/17 08:21:28;;;;;;;15.73;10.40;;;9.70;96.10;;;;;;4846359;29;20391;-77
2020/12/17 08:23:54;;;;;;;15.33;10.07;;;9.80;95.90;;;;;;4854255;29;20064;-76
2020/12/17 08:26:28;;;;;;;17.30;11.23;;;9.70;95.80;;;;;;4858237;29;20101;-76
2020/12/17 08:28:54;;;;;;;15.17;10.30;;;9.70;95.80;;;;;;4846766;29;20102;-76
2020/12/17 08:31:27;;;;;;;15.27;10.00;;;9.70;95.90;;;;;;4839943;29;20073;-78
2020/12/17 08:33:54;;;;;;;14.90;10.43;;;9.70;95.80;;;;;;4837490;29;20049;-75
2020/12/17 08:36:24;;;;;;;15.37;10.17;;;9.80;95.90;;;;;;4862962;29;20054;-75
2020/12/17 08:38:58;;;;;;;13.90;9.27;;;9.80;95.90;;;;;;4839269;29;20057;-78
2020/12/17 08:41:53;;;;;;;17.23;11.43;;;9.80;95.90;;;;;;4860735;29;20102;-80
2020/12/17 08:44:34;;;;;;;18.60;12.20;;;9.80;95.80;;;;;;4858763;29;20391;-79
2020/12/17 08:47:06;;;;;;;18.60;12.67;;;9.80;95.80;;;;;;4849133;29;20106;-80
2020/12/17 08:49:33;;;;;;;17.83;12.00;;;9.80;95.80;;;;;;4855155;29;20049;-79
2020/12/17 08:52:03;;;;;;;16.50;12.10;;;9.80;95.80;;;;;;4851057;29;20124;-75
2020/12/17 08:54:33;;;;;;;18.33;12.77;;;9.80;95.80;;;;;;4862674;29;20068;-76
2020/12/17 08:57:11;;;;;;;18.00;11.40;;;9.80;95.80;;;;;;4862733;29;20079;-76
2020/12/17 08:59:39;;;;;;;18.50;12.43;;;9.80;95.80;;;;;;4838740;29;20136;-76
2020/12/17 09:02:06;;;;;;;18.27;12.30;;;9.80;95.80;;;;;;4849535;29;20045;-76
2020/12/17 09:04:33;;;;;;;18.20;12.13;;;9.80;95.70;;;;;;4856751;29;20049;-76
2020/12/17 09:07:01;;;;;;;15.60;11.10;;;9.80;95.70;;;;;;4850109;29;20450;-76
2020/12/17 09:09:33;;;;;;;14.47;10.30;;;9.80;95.70;;;;;;4851155;29;20443;-77
2020/12/17 09:12:05;;;;;;;18.57;12.00;;;9.80;95.80;;;;;;4835909;29;20513;-76
2020/12/17 09:14:34;;;;;;;17.07;12.40;;;9.80;95.70;;;;;;4847292;29;20509;-76
2020/12/17 09:17:27;;;;;;;16.60;11.60;;;9.80;95.70;;;;;;4844890;29;20050;-76
2020/12/17 09:19:53;;;;;;;15.15;10.80;;;9.80;95.70;;;;;;4828925;29;20094;-76
2020/12/17 09:22:21;;;;;;;14.03;9.57;;;9.80;95.70;;;;;;4862278;29;20149;-76
2020/12/17 09:24:50;;;;;;;15.73;10.10;;;9.80;95.70;;;;;;4862159;29;20141;-76
2020/12/17 09:27:18;;;;;;;14.00;8.87;;;9.80;95.70;;;;;;4858236;29;20038;-76
2020/12/17 09:30:07;;;;;;;15.73;10.57;;;9.90;95.80;;;;;;4862140;29;20048;-76
2020/12/17 09:32:38;;;;;;;15.83;9.87;;;9.90;95.70;;;;;;4843027;29;20041;-76
2020/12/17 09:35:15;;;;;;;14.93;10.10;;;9.90;95.70;;;;;;4825398;29;20136;-76
2020/12/17 09:38:00;;;;;;;14.73;10.53;;;10.00;95.70;;;;;;4861721;29;20053;-75
2020/12/17 09:40:27;;;;;;;15.67;11.27;;;10.10;95.60;;;;;;4861652;29;20049;-75
2020/12/17 09:43:08;;;;;;;16.20;11.63;;;10.00;95.50;;;;;;4840571;29;20052;-75
2020/12/17 09:45:36;;;;;;;13.23;9.30;;;10.00;95.40;;;;;;4854536;29;20090;-75
2020/12/17 09:48:20;;;;;;;14.67;9.63;;;10.00;95.40;;;;;;4856719;29;20125;-72
2020/12/17 09:50:57;;;;;;;14.00;9.40;;;10.00;95.50;;;;;;4838505;29;20151;-72
2020/12/17 09:53:24;;;;;;;10.87;7.40;;;10.00;95.40;;;;;;4826400;29;20053;-71
2020/12/17 09:55:51;;;;;;;11.63;7.87;;;10.00;95.50;;;;;;4851513;29;20054;-72
2020/12/17 09:58:18;;;;;;;11.43;7.83;;;10.00;95.50;;;;;;4834538;29;20487;-72
2020/12/17 10:00:44;;;;;;;10.17;6.77;;;10.00;95.40;;;;;;4851359;29;20049;-72
2020/12/17 10:03:11;;;;;;;10.20;7.77;;;10.10;95.50;;;;;;4853874;29;20049;-72
2020/12/17 10:05:38;;;;;;;9.83;6.83;;;10.10;95.40;;;;;;4841631;29;20461;-72
2020/12/17 10:08:11;;;;;;;10.13;6.30;;;10.10;95.40;;;;;;4843212;29;20080;-72
2020/12/17 10:10:43;;;;;;;10.13;7.53;;;10.20;95.40;;;;;;4828718;29;20049;-72
2020/12/17 10:13:10;;;;;;;9.93;7.70;;;10.20;95.40;;;;;;4813423;29;20049;-72
2020/12/17 10:15:38;;;;;;;8.47;6.57;;;10.20;95.40;;;;;;4858732;29;20053;-72
2020/12/17 10:18:05;;;;;;;9.90;6.97;;;10.20;95.40;;;;;;4813796;29;20064;-72
2020/12/17 10:20:31;;;;;;;10.67;6.37;;;10.30;95.30;;;;;;4842958;29;20037;-71
2020/12/17 10:22:58;;;;;;;9.63;6.63;;;10.30;95.30;;;;;;4843414;29;20106;-72
2020/12/17 10:25:24;;;;;;;9.63;6.23;;;10.30;95.20;;;;;;4830022;29;20054;-72
2020/12/17 10:28:01;;;;;;;8.03;5.90;;;10.30;95.20;;;;;;4843548;29;20363;-72
2020/12/17 10:30:27;;;;;;;7.70;5.80;;;10.30;95.20;;;;;;4858316;29;20049;-71
2020/12/17 10:32:56;;;;;;;8.73;5.97;;;10.30;95.20;;;;;;4815578;29;20106;-72
2020/12/17 10:35:24;;;;;;;9.90;5.80;;;10.30;95.10;;;;;;4833366;29;20053;-72
2020/12/17 10:37:50;;;;;;;9.30;6.53;;;10.20;95.10;;;;;;4858388;29;20076;-72
2020/12/17 10:40:19;;;;;;;9.40;7.90;;;10.30;95.10;;;;;;4824804;29;20171;-71
2020/12/17 10:43:10;;;;;;;9.73;7.23;;;10.30;95.10;;;;;;4839212;29;20076;-71
2020/12/17 10:45:57;;;;;;;11.23;7.37;;;10.30;95.10;;;;;;4842515;29;20056;-72
2020/12/17 10:48:24;;;;;;;11.00;6.37;;;10.30;95.00;;;;;;4842007;29;20053;-72
2020/12/17 10:50:50;;;;;;;10.10;6.60;;;10.30;94.80;;;;;;4848733;29;20085;-72
2020/12/17 10:53:17;;;;;;;8.87;6.73;;;10.30;94.70;;;;;;4827874;29;20072;-72
2020/12/17 10:55:43;;;;;;;11.33;6.43;;;10.30;94.60;;;;;;4850185;29;20485;-72
2020/12/17 10:58:12;;;;;;;8.70;6.10;;;10.30;94.60;;;;;;4827696;29;20054;-72
2020/12/17 11:00:39;;;;;;;10.67;5.53;;;10.30;94.50;;;;;;4827976;29;20132;-72
2020/12/17 11:03:07;;;;;;;9.07;5.30;;;10.40;94.60;;;;;;4812546;29;20057;-72
2020/12/17 11:05:36;;;;;;;7.20;4.90;;;10.40;94.60;;;;;;4827477;29;20084;-72
2020/12/17 11:08:03;;;;;;;8.70;4.70;;;10.40;94.60;;;;;;4812824;29;20041;-72
2020/12/17 11:10:30;;;;;;;15.47;10.17;;;10.50;94.70;;;;;;4841550;29;20080;-71
2020/12/17 11:13:06;;;;;;;13.00;8.53;;;10.50;94.50;;;;;;4859344;29;20041;-72
2020/12/17 11:15:32;;;;;;;10.10;7.40;;;10.60;94.40;;;;;;4827264;29;20424;-72
2020/12/17 11:17:59;;;;;;;9.90;7.57;;;10.60;94.50;;;;;;4833446;29;20472;-72
2020/12/17 11:20:25;;;;;;;15.07;8.23;;;10.70;94.50;;;;;;4827836;29;20831;-72
2020/12/17 11:22:52;;;;;;;12.43;8.47;;;10.70;94.30;;;;;;4837483;29;20133;-72
2020/12/17 11:25:18;;;;;;;12.87;8.57;;;10.70;94.00;;;;;;4824525;29;20042;-72
2020/12/17 11:27:45;;;;;;;10.60;8.60;;;10.70;93.90;;;;;;4824284;29;20054;-72
2020/12/17 11:30:11;;;;;;;10.03;6.50;;;10.70;94.00;;;;;;4824592;29;20103;-72
2020/12/17 11:32:38;;;;;;;7.07;5.47;;;10.80;94.10;;;;;;4794176;29;20053;-72
2020/12/17 11:35:06;;;;;;;7.43;4.63;;;10.90;94.20;;;;;;4824126;29;20128;-72
2020/12/17 11:37:34;;;;;;;7.00;4.63;;;11.00;94.20;;;;;;4830835;29;20053;-72
2020/12/17 11:40:01;;;;;;;9.77;7.87;;;11.00;94.20;;;;;;4828706;29;20452;-72
2020/12/17 11:42:28;;;;;;;14.30;11.40;;;11.10;93.80;;;;;;4827562;29;20442;-72
2020/12/17 11:44:54;;;;;;;13.77;10.17;;;11.00;93.80;;;;;;4842792;29;20079;-72
2020/12/17 11:47:21;;;;;;;12.40;9.00;;;11.00;93.80;;;;;;4844412;29;20046;-72
2020/12/17 11:49:47;;;;;;;12.83;8.70;;;10.90;93.70;;;;;;4840262;29;20045;-73
2020/12/17 11:52:17;;;;;;;9.37;7.13;;;10.90;93.80;;;;;;4811391;29;20453;-72
2020/12/17 11:54:44;;;;;;;8.87;6.80;;;10.90;93.90;;;;;;4843253;29;20519;-72
2020/12/17 11:57:11;;;;;;;20.57;15.63;;;10.80;93.80;;;;;;4826945;29;20041;-72
2020/12/17 11:59:38;;;;;;;16.00;12.17;;;10.80;93.60;;;;;;4811729;29;20042;-72
2020/12/17 12:02:07;;;;;;;18.73;13.43;;;10.80;93.70;;;;;;4827694;29;20122;-72
2020/12/17 12:04:34;;;;;;;17.17;12.43;;;10.80;93.70;;;;;;4831808;29;20080;-72
2020/12/17 12:07:00;;;;;;;13.20;10.40;;;10.70;93.40;;;;;;4826878;29;20131;-73
2020/12/17 12:09:27;;;;;;;14.77;8.13;;;10.70;93.50;;;;;;4807912;29;20103;-72
2020/12/17 12:11:54;;;;;;;9.87;8.10;;;10.70;93.60;;;;;;4807964;29;20046;-72
2020/12/17 12:14:21;;;;;;;20.07;7.30;;;10.70;93.60;;;;;;4812102;29;20110;-73
2020/12/17 12:16:50;;;;;;;9.87;6.70;;;10.70;93.70;;;;;;4843754;29;20054;-73
2020/12/17 12:19:17;;;;;;;8.17;6.57;;;10.70;93.60;;;;;;4831624;29;20042;-73
2020/12/17 12:21:50;;;;;;;11.20;5.50;;;10.70;93.70;;;;;;4810435;29;20042;-73
2020/12/17 12:24:20;;;;;;;11.90;7.00;;;10.80;93.70;;;;;;4826349;29;20113;-73
2020/12/17 12:26:47;;;;;;;10.30;7.43;;;10.80;93.60;;;;;;4799165;29;20049;-71
2020/12/17 12:29:14;;;;;;;8.27;5.83;;;10.80;93.40;;;;;;4827578;29;20062;-71
2020/12/17 12:31:41;;;;;;;8.50;6.10;;;10.80;93.50;;;;;;4840005;29;20066;-72
2020/12/17 12:34:07;;;;;;;9.80;6.00;;;10.80;93.50;;;;;;4826585;29;20065;-71
2020/12/17 12:36:34;;;;;;;9.93;5.87;;;10.80;93.40;;;;;;4819832;29;20062;-72
2020/12/17 12:39:01;;;;;;;7.97;4.87;;;10.80;93.50;;;;;;4843511;29;20057;-72
2020/12/17 12:41:27;;;;;;;7.53;5.40;;;10.80;93.60;;;;;;4839006;29;20048;-72
2020/12/17 12:44:07;;;;;;;8.67;5.47;;;10.80;93.50;;;;;;4828836;29;20050;-72
2020/12/17 12:46:33;;;;;;;8.07;5.40;;;10.80;93.50;;;;;;4843145;29;20038;-72
2020/12/17 12:49:00;;;;;;;8.50;5.30;;;10.80;93.50;;;;;;4811539;29;20046;-72
2020/12/17 12:51:27;;;;;;;10.47;5.90;;;10.80;93.50;;;;;;4826886;29;20049;-72
2020/12/17 12:53:56;;;;;;;7.33;5.33;;;10.80;93.40;;;;;;4826989;29;20042;-72
2020/12/17 12:56:29;;;;;;;7.75;5.22;;;10.80;93.40;;;;;;4842065;29;20482;-72
2020/12/17 12:58:56;;;;;;;13.73;6.23;;;10.80;93.40;;;;;;4843237;29;20778;-72